EZY1 EGPH-EGKK
Flight info
| Callsign | EZY1 |
|---|---|
| Flight time | 1h 6m |
| Altitude | 33000 |
| Route | GOSAM P600 FENIK L612 NAVSO DCT KEPAD L151 DISIT |
| Aircraft | A20N/M-SDE2E3FGHIRWXY/LB1 |
Departure
| Time | 2026-04-24 21:56 |
|---|---|
| Airport | Edinburgh Airport (EGPH) |
Arrival
| Time | 2026-04-24 23:02 |
|---|---|
| Airport | London Gatwick Airport (EGKK) |
| Time | Latitude | Longitude | Altitude | Speed | Heading |
|---|---|---|---|---|---|
| 2026-04-24 21:48 | 55.94793 | -3.36608 | 119 ft | 0 kts | 117° |
| 2026-04-24 21:50 | 55.94798 | -3.36624 | 115 ft | 2 kts | 117° |
| 2026-04-24 21:50 | 55.94806 | -3.36651 | 116 ft | 2 kts | 117° |
| 2026-04-24 21:51 | 55.94814 | -3.36678 | 117 ft | 2 kts | 117° |
| 2026-04-24 21:51 | 55.94821 | -3.36704 | 117 ft | 2 kts | 117° |
| 2026-04-24 21:51 | 55.94824 | -3.36713 | 117 ft | 1 kts | 115° |
| 2026-04-24 21:51 | 55.94825 | -3.36740 | 115 ft | 2 kts | 50° |
| 2026-04-24 21:52 | 55.94812 | -3.36753 | 116 ft | 2 kts | 344° |
| 2026-04-24 21:52 | 55.94825 | -3.36760 | 115 ft | 6 kts | 345° |
| 2026-04-24 21:52 | 55.94892 | -3.36799 | 115 ft | 13 kts | 333° |
| 2026-04-24 21:52 | 55.94954 | -3.36814 | 119 ft | 4 kts | 40° |
| 2026-04-24 21:53 | 55.94977 | -3.36743 | 116 ft | 11 kts | 59° |
| 2026-04-24 21:53 | 55.95031 | -3.36584 | 117 ft | 19 kts | 59° |
| 2026-04-24 21:53 | 55.95111 | -3.36347 | 117 ft | 26 kts | 59° |
| 2026-04-24 21:53 | 55.95157 | -3.36212 | 115 ft | 11 kts | 54° |
| 2026-04-24 21:54 | 55.95197 | -3.36087 | 117 ft | 13 kts | 62° |
| 2026-04-24 21:54 | 55.95246 | -3.35947 | 119 ft | 16 kts | 56° |
| 2026-04-24 21:54 | 55.95314 | -3.35747 | 118 ft | 21 kts | 59° |
| 2026-04-24 21:54 | 55.95391 | -3.35515 | 118 ft | 22 kts | 64° |
| 2026-04-24 21:55 | 55.95497 | -3.35438 | 117 ft | 17 kts | 328° |
| 2026-04-24 21:55 | 55.95567 | -3.35577 | 115 ft | 10 kts | 265° |
| 2026-04-24 21:55 | 55.95533 | -3.35683 | 114 ft | 33 kts | 239° |
| 2026-04-24 21:55 | 55.95235 | -3.36557 | 114 ft | 132 kts | 239° |
| 2026-04-24 21:56 | 55.94626 | -3.38373 | 419 ft | 183 kts | 246° |
| 2026-04-24 21:56 | 55.94110 | -3.40293 | 1739 ft | 171 kts | 244° |
| 2026-04-24 21:56 | 55.93460 | -3.42364 | 2218 ft | 208 kts | 242° |
| 2026-04-24 21:56 | 55.92736 | -3.44776 | 2810 ft | 232 kts | 243° |
| 2026-04-24 21:57 | 55.91917 | -3.47342 | 3649 ft | 240 kts | 236° |
| 2026-04-24 21:57 | 55.90929 | -3.49861 | 4537 ft | 257 kts | 237° |
| 2026-04-24 21:57 | 55.90280 | -3.52816 | 5623 ft | 263 kts | 259° |
| 2026-04-24 21:57 | 55.89920 | -3.56033 | 6870 ft | 266 kts | 261° |
| 2026-04-24 21:58 | 55.89597 | -3.59297 | 8057 ft | 269 kts | 262° |
| 2026-04-24 21:58 | 55.89279 | -3.62616 | 9196 ft | 274 kts | 262° |
| 2026-04-24 21:58 | 55.88953 | -3.66010 | 10196 ft | 286 kts | 262° |
| 2026-04-24 21:58 | 55.88598 | -3.69671 | 10659 ft | 314 kts | 262° |
| 2026-04-24 21:59 | 55.88206 | -3.73664 | 11077 ft | 341 kts | 262° |
| 2026-04-24 21:59 | 55.87777 | -3.77973 | 11487 ft | 366 kts | 262° |
| 2026-04-24 21:59 | 55.87317 | -3.82575 | 11910 ft | 388 kts | 262° |
| 2026-04-24 21:59 | 55.86835 | -3.87350 | 12776 ft | 396 kts | 262° |
| 2026-04-24 22:00 | 55.86342 | -3.92222 | 13620 ft | 403 kts | 262° |
| 2026-04-24 22:00 | 55.85839 | -3.97174 | 14439 ft | 409 kts | 262° |
| 2026-04-24 22:00 | 55.85325 | -4.02193 | 15212 ft | 414 kts | 261° |
| 2026-04-24 22:00 | 55.84536 | -4.07145 | 16029 ft | 421 kts | 249° |
| 2026-04-24 22:01 | 55.83005 | -4.11620 | 16886 ft | 427 kts | 234° |
| 2026-04-24 22:01 | 55.81095 | -4.15697 | 17707 ft | 431 kts | 230° |
| 2026-04-24 22:01 | 55.79117 | -4.19742 | 18492 ft | 435 kts | 230° |
| 2026-04-24 22:01 | 55.76882 | -4.23407 | 19182 ft | 441 kts | 219° |
| 2026-04-24 22:02 | 55.74386 | -4.26611 | 19842 ft | 446 kts | 215° |
| 2026-04-24 22:02 | 55.71667 | -4.29314 | 20486 ft | 452 kts | 202° |
| 2026-04-24 22:02 | 55.68585 | -4.30545 | 21167 ft | 458 kts | 185° |
| 2026-04-24 22:02 | 55.65392 | -4.30184 | 21801 ft | 464 kts | 169° |
| 2026-04-24 22:03 | 55.62342 | -4.28240 | 22396 ft | 471 kts | 153° |
| 2026-04-24 22:03 | 55.59676 | -4.24845 | 23012 ft | 477 kts | 137° |
| 2026-04-24 22:03 | 55.57443 | -4.20587 | 23606 ft | 481 kts | 132° |
| 2026-04-24 22:03 | 55.55180 | -4.16199 | 24127 ft | 485 kts | 135° |
| 2026-04-24 22:04 | 55.52703 | -4.12121 | 24613 ft | 488 kts | 141° |
| 2026-04-24 22:04 | 55.49999 | -4.08467 | 25104 ft | 491 kts | 146° |
| 2026-04-24 22:04 | 55.47135 | -4.05189 | 25689 ft | 492 kts | 149° |
| 2026-04-24 22:04 | 55.44180 | -4.02164 | 26323 ft | 491 kts | 152° |
| 2026-04-24 22:05 | 55.41188 | -3.99279 | 26970 ft | 490 kts | 153° |
| 2026-04-24 22:05 | 55.38181 | -3.96451 | 27615 ft | 489 kts | 153° |
| 2026-04-24 22:05 | 55.35185 | -3.93642 | 28236 ft | 488 kts | 153° |
| 2026-04-24 22:05 | 55.32196 | -3.90825 | 28869 ft | 487 kts | 153° |
| 2026-04-24 22:06 | 55.29219 | -3.88000 | 29513 ft | 486 kts | 153° |
| 2026-04-24 22:06 | 55.26254 | -3.85172 | 30163 ft | 485 kts | 153° |
| 2026-04-24 22:06 | 55.23289 | -3.82353 | 30702 ft | 484 kts | 154° |
| 2026-04-24 22:06 | 55.20230 | -3.79920 | 31220 ft | 482 kts | 159° |
| 2026-04-24 22:07 | 55.17095 | -3.77888 | 31717 ft | 480 kts | 162° |
| 2026-04-24 22:07 | 55.13926 | -3.76064 | 32244 ft | 479 kts | 163° |
| 2026-04-24 22:07 | 55.10750 | -3.74320 | 32764 ft | 477 kts | 164° |
| 2026-04-24 22:07 | 55.07584 | -3.72587 | 33250 ft | 475 kts | 164° |
| 2026-04-24 22:08 | 55.04441 | -3.70841 | 33403 ft | 473 kts | 163° |
| 2026-04-24 22:08 | 55.01313 | -3.69075 | 33269 ft | 473 kts | 163° |
| 2026-04-24 22:08 | 54.98219 | -3.67303 | 33248 ft | 475 kts | 163° |
| 2026-04-24 22:09 | 54.91937 | -3.63668 | 33250 ft | 476 kts | 163° |
| 2026-04-24 22:09 | 54.85656 | -3.60029 | 33249 ft | 475 kts | 163° |
| 2026-04-24 22:10 | 54.79380 | -3.56409 | 33249 ft | 475 kts | 163° |
| 2026-04-24 22:10 | 54.73100 | -3.52803 | 33249 ft | 475 kts | 163° |
| 2026-04-24 22:11 | 54.66823 | -3.49211 | 33248 ft | 475 kts | 163° |
| 2026-04-24 22:11 | 54.60537 | -3.45627 | 33249 ft | 475 kts | 163° |
| 2026-04-24 22:12 | 54.54250 | -3.42053 | 33251 ft | 475 kts | 163° |
| 2026-04-24 22:12 | 54.47964 | -3.38491 | 33252 ft | 475 kts | 163° |
| 2026-04-24 22:13 | 54.41681 | -3.34942 | 33251 ft | 475 kts | 163° |
| 2026-04-24 22:13 | 54.35440 | -3.31429 | 33252 ft | 475 kts | 163° |
| 2026-04-24 22:14 | 54.29149 | -3.27898 | 33248 ft | 475 kts | 163° |
| 2026-04-24 22:14 | 54.22860 | -3.24380 | 33249 ft | 475 kts | 163° |
| 2026-04-24 22:15 | 54.16571 | -3.20874 | 33249 ft | 475 kts | 163° |
| 2026-04-24 22:15 | 54.10285 | -3.17381 | 33249 ft | 475 kts | 163° |
| 2026-04-24 22:16 | 54.03990 | -3.13893 | 33251 ft | 477 kts | 163° |
| 2026-04-24 22:16 | 53.97716 | -3.10429 | 33246 ft | 477 kts | 163° |
| 2026-04-24 22:17 | 53.91395 | -3.06949 | 33246 ft | 477 kts | 163° |
| 2026-04-24 22:17 | 53.85086 | -3.03486 | 33246 ft | 477 kts | 163° |
| 2026-04-24 22:18 | 53.78774 | -3.00034 | 33246 ft | 477 kts | 163° |
| 2026-04-24 22:18 | 53.72464 | -2.96594 | 33246 ft | 477 kts | 163° |
| 2026-04-24 22:19 | 53.66154 | -2.93163 | 33248 ft | 476 kts | 163° |
| 2026-04-24 22:19 | 53.59851 | -2.89748 | 33250 ft | 475 kts | 163° |
| 2026-04-24 22:20 | 53.53551 | -2.86345 | 33250 ft | 475 kts | 163° |
| 2026-04-24 22:20 | 53.47245 | -2.82950 | 33251 ft | 475 kts | 163° |
| 2026-04-24 22:21 | 53.42002 | -2.80134 | 33252 ft | 475 kts | 163° |
| 2026-04-24 22:21 | 53.35702 | -2.76761 | 33257 ft | 475 kts | 164° |
| 2026-04-24 22:22 | 53.29395 | -2.73395 | 33257 ft | 475 kts | 164° |
| 2026-04-24 22:22 | 53.23094 | -2.70043 | 33260 ft | 475 kts | 164° |
| 2026-04-24 22:23 | 53.16791 | -2.66698 | 33256 ft | 475 kts | 164° |
| 2026-04-24 22:23 | 53.10495 | -2.63370 | 33255 ft | 474 kts | 164° |
| 2026-04-24 22:24 | 53.04202 | -2.60053 | 33262 ft | 474 kts | 164° |
| 2026-04-24 22:24 | 52.97940 | -2.56761 | 33250 ft | 474 kts | 164° |
| 2026-04-24 22:25 | 52.91647 | -2.53464 | 33263 ft | 474 kts | 165° |
| 2026-04-24 22:25 | 52.85354 | -2.50177 | 33265 ft | 476 kts | 165° |
| 2026-04-24 22:26 | 52.79163 | -2.46278 | 33267 ft | 479 kts | 153° |
| 2026-04-24 22:26 | 52.73532 | -2.40337 | 33256 ft | 482 kts | 147° |
| 2026-04-24 22:27 | 52.68069 | -2.33924 | 33254 ft | 482 kts | 147° |
| 2026-04-24 22:27 | 52.62559 | -2.27631 | 33252 ft | 482 kts | 148° |
| 2026-04-24 22:28 | 52.57001 | -2.21490 | 33254 ft | 481 kts | 148° |
| 2026-04-24 22:28 | 52.51420 | -2.15411 | 33249 ft | 481 kts | 148° |
| 2026-04-24 22:29 | 52.43101 | -2.06382 | 32258 ft | 468 kts | 148° |
| 2026-04-24 22:29 | 52.40389 | -2.03443 | 31093 ft | 468 kts | 148° |
| 2026-04-24 22:29 | 52.37704 | -2.00538 | 29737 ft | 471 kts | 149° |
| 2026-04-24 22:30 | 52.34962 | -1.97577 | 28194 ft | 474 kts | 149° |
| 2026-04-24 22:30 | 52.32188 | -1.94588 | 26499 ft | 481 kts | 149° |
| 2026-04-24 22:30 | 52.29377 | -1.91565 | 24886 ft | 486 kts | 149° |
| 2026-04-24 22:30 | 52.26544 | -1.88520 | 23271 ft | 488 kts | 149° |
| 2026-04-24 22:31 | 52.23724 | -1.85493 | 21976 ft | 479 kts | 148° |
| 2026-04-24 22:31 | 52.20989 | -1.82559 | 21036 ft | 462 kts | 148° |
| 2026-04-24 22:31 | 52.18366 | -1.79749 | 20474 ft | 438 kts | 148° |
| 2026-04-24 22:31 | 52.15904 | -1.77114 | 20271 ft | 408 kts | 148° |
| 2026-04-24 22:32 | 52.13562 | -1.74613 | 20257 ft | 407 kts | 148° |
| 2026-04-24 22:32 | 52.11141 | -1.72036 | 20260 ft | 423 kts | 148° |
| 2026-04-24 22:32 | 52.08644 | -1.69381 | 20259 ft | 435 kts | 148° |
| 2026-04-24 22:32 | 52.06078 | -1.66655 | 20258 ft | 446 kts | 148° |
| 2026-04-24 22:33 | 52.03455 | -1.63870 | 20254 ft | 455 kts | 148° |
| 2026-04-24 22:33 | 52.00779 | -1.61034 | 20255 ft | 463 kts | 148° |
| 2026-04-24 22:33 | 51.98057 | -1.58152 | 20256 ft | 469 kts | 148° |
| 2026-04-24 22:33 | 51.95349 | -1.55289 | 20259 ft | 469 kts | 148° |
| 2026-04-24 22:34 | 51.92614 | -1.52401 | 20259 ft | 469 kts | 148° |
| 2026-04-24 22:34 | 51.89873 | -1.49511 | 20261 ft | 470 kts | 148° |
| 2026-04-24 22:34 | 51.87133 | -1.46626 | 20264 ft | 469 kts | 148° |
| 2026-04-24 22:34 | 51.84396 | -1.43750 | 20264 ft | 469 kts | 148° |
| 2026-04-24 22:35 | 51.81660 | -1.40879 | 20265 ft | 469 kts | 148° |
| 2026-04-24 22:35 | 51.78917 | -1.38004 | 20259 ft | 470 kts | 149° |
| 2026-04-24 22:35 | 51.76167 | -1.35127 | 20267 ft | 472 kts | 149° |
| 2026-04-24 22:35 | 51.73408 | -1.32245 | 20264 ft | 473 kts | 149° |
| 2026-04-24 22:36 | 51.70645 | -1.29364 | 20262 ft | 473 kts | 149° |
| 2026-04-24 22:36 | 51.67884 | -1.26487 | 20262 ft | 473 kts | 149° |
| 2026-04-24 22:36 | 51.65118 | -1.23610 | 20265 ft | 473 kts | 149° |
| 2026-04-24 22:36 | 51.62355 | -1.20741 | 20266 ft | 473 kts | 149° |
| 2026-04-24 22:37 | 51.59590 | -1.17874 | 20265 ft | 473 kts | 149° |
| 2026-04-24 22:37 | 51.56819 | -1.15005 | 20263 ft | 473 kts | 149° |
| 2026-04-24 22:37 | 51.54055 | -1.12147 | 20265 ft | 473 kts | 149° |
| 2026-04-24 22:37 | 51.51290 | -1.09292 | 20265 ft | 473 kts | 149° |
| 2026-04-24 22:38 | 51.48518 | -1.06434 | 20262 ft | 473 kts | 149° |
| 2026-04-24 22:38 | 51.45747 | -1.03581 | 20261 ft | 473 kts | 149° |
| 2026-04-24 22:38 | 51.43013 | -1.00771 | 20259 ft | 473 kts | 149° |
| 2026-04-24 22:38 | 51.40245 | -0.97930 | 20257 ft | 473 kts | 149° |
| 2026-04-24 22:39 | 51.37474 | -0.95089 | 20259 ft | 473 kts | 149° |
| 2026-04-24 22:39 | 51.34701 | -0.92251 | 20254 ft | 473 kts | 149° |
| 2026-04-24 22:39 | 51.31926 | -0.89416 | 20258 ft | 473 kts | 149° |
| 2026-04-24 22:39 | 51.29195 | -0.86626 | 20010 ft | 455 kts | 149° |
| 2026-04-24 22:40 | 51.26583 | -0.83958 | 19057 ft | 439 kts | 149° |
| 2026-04-24 22:40 | 51.24017 | -0.81347 | 17528 ft | 436 kts | 149° |
| 2026-04-24 22:40 | 51.21475 | -0.78766 | 16131 ft | 430 kts | 149° |
| 2026-04-24 22:40 | 51.18979 | -0.76234 | 14862 ft | 420 kts | 149° |
| 2026-04-24 22:41 | 51.16544 | -0.73766 | 13602 ft | 410 kts | 148° |
| 2026-04-24 22:41 | 51.14162 | -0.71356 | 12219 ft | 402 kts | 148° |
| 2026-04-24 22:41 | 51.11823 | -0.68992 | 10854 ft | 395 kts | 147° |
| 2026-04-24 22:41 | 51.09518 | -0.66665 | 9478 ft | 388 kts | 147° |
| 2026-04-24 22:42 | 51.07289 | -0.64416 | 8098 ft | 380 kts | 147° |
| 2026-04-24 22:42 | 51.05035 | -0.62311 | 6766 ft | 371 kts | 149° |
| 2026-04-24 22:42 | 51.03132 | -0.59649 | 5482 ft | 362 kts | 126° |
| 2026-04-24 22:42 | 51.02110 | -0.56137 | 4713 ft | 341 kts | 107° |
| 2026-04-24 22:43 | 51.01477 | -0.52673 | 4332 ft | 312 kts | 107° |
| 2026-04-24 22:43 | 51.00836 | -0.49572 | 4249 ft | 280 kts | 109° |
| 2026-04-24 22:43 | 51.00184 | -0.46839 | 4243 ft | 250 kts | 112° |
| 2026-04-24 22:43 | 50.99548 | -0.44415 | 4242 ft | 226 kts | 113° |
| 2026-04-24 22:44 | 50.98941 | -0.42251 | 4231 ft | 205 kts | 114° |
| 2026-04-24 22:44 | 50.98352 | -0.40239 | 4035 ft | 197 kts | 115° |
| 2026-04-24 22:44 | 50.97765 | -0.38292 | 3991 ft | 196 kts | 116° |
| 2026-04-24 22:44 | 50.97167 | -0.36347 | 3990 ft | 196 kts | 116° |
| 2026-04-24 22:45 | 50.96562 | -0.34404 | 3987 ft | 196 kts | 116° |
| 2026-04-24 22:45 | 50.95954 | -0.32463 | 3988 ft | 197 kts | 116° |
| 2026-04-24 22:45 | 50.95343 | -0.30525 | 3984 ft | 197 kts | 116° |
| 2026-04-24 22:45 | 50.94730 | -0.28582 | 3989 ft | 197 kts | 116° |
| 2026-04-24 22:46 | 50.94118 | -0.26646 | 3988 ft | 196 kts | 116° |
| 2026-04-24 22:46 | 50.93505 | -0.24711 | 3987 ft | 196 kts | 116° |
| 2026-04-24 22:46 | 50.92892 | -0.22778 | 3982 ft | 196 kts | 116° |
| 2026-04-24 22:46 | 50.92278 | -0.20844 | 3988 ft | 196 kts | 116° |
| 2026-04-24 22:47 | 50.91665 | -0.18912 | 3985 ft | 196 kts | 116° |
| 2026-04-24 22:47 | 50.91059 | -0.17008 | 3982 ft | 196 kts | 116° |
| 2026-04-24 22:47 | 50.90444 | -0.15075 | 3985 ft | 196 kts | 116° |
| 2026-04-24 22:47 | 50.89832 | -0.13150 | 3983 ft | 196 kts | 116° |
| 2026-04-24 22:48 | 50.89217 | -0.11222 | 3986 ft | 196 kts | 116° |
| 2026-04-24 22:48 | 50.88627 | -0.09280 | 3982 ft | 196 kts | 112° |
| 2026-04-24 22:48 | 50.88280 | -0.07204 | 3985 ft | 196 kts | 96° |
| 2026-04-24 22:48 | 50.88351 | -0.05057 | 3977 ft | 196 kts | 77° |
| 2026-04-24 22:49 | 50.88863 | -0.03064 | 3984 ft | 197 kts | 58° |
| 2026-04-24 22:49 | 50.89767 | -0.01437 | 3988 ft | 197 kts | 39° |
| 2026-04-24 22:49 | 50.90906 | -0.00411 | 4000 ft | 184 kts | 21° |
| 2026-04-24 22:49 | 50.92147 | -0.00001 | 3983 ft | 183 kts | 4° |
| 2026-04-24 22:50 | 50.93417 | -0.00190 | 3721 ft | 185 kts | 346° |
| 2026-04-24 22:50 | 50.94588 | -0.01002 | 3417 ft | 184 kts | 328° |
| 2026-04-24 22:50 | 50.95548 | -0.02348 | 3090 ft | 185 kts | 309° |
| 2026-04-24 22:50 | 50.96199 | -0.04105 | 2991 ft | 186 kts | 291° |
| 2026-04-24 22:51 | 50.96576 | -0.06069 | 2989 ft | 186 kts | 283° |
| 2026-04-24 22:51 | 50.96872 | -0.08063 | 2986 ft | 186 kts | 282° |
| 2026-04-24 22:51 | 50.97159 | -0.10067 | 2991 ft | 186 kts | 282° |
| 2026-04-24 22:51 | 50.97449 | -0.12065 | 2991 ft | 186 kts | 283° |
| 2026-04-24 22:52 | 50.97742 | -0.14062 | 2986 ft | 186 kts | 283° |
| 2026-04-24 22:52 | 50.98038 | -0.16062 | 2992 ft | 186 kts | 283° |
| 2026-04-24 22:52 | 50.98338 | -0.18056 | 2991 ft | 186 kts | 285° |
| 2026-04-24 22:52 | 50.98874 | -0.19913 | 2994 ft | 186 kts | 303° |
| 2026-04-24 22:53 | 50.99621 | -0.21579 | 2990 ft | 185 kts | 308° |
| 2026-04-24 22:53 | 51.00407 | -0.23200 | 2993 ft | 185 kts | 308° |
| 2026-04-24 22:53 | 51.01197 | -0.24819 | 2991 ft | 185 kts | 308° |
| 2026-04-24 22:53 | 51.01984 | -0.26440 | 2990 ft | 185 kts | 308° |
| 2026-04-24 22:54 | 51.02770 | -0.28063 | 2994 ft | 185 kts | 308° |
| 2026-04-24 22:54 | 51.03524 | -0.29727 | 2985 ft | 186 kts | 299° |
| 2026-04-24 22:54 | 51.03866 | -0.31685 | 2996 ft | 185 kts | 276° |
| 2026-04-24 22:54 | 51.03951 | -0.33724 | 2991 ft | 185 kts | 271° |
| 2026-04-24 22:55 | 51.03993 | -0.35744 | 2991 ft | 185 kts | 271° |
| 2026-04-24 22:55 | 51.04029 | -0.37789 | 2992 ft | 185 kts | 271° |
| 2026-04-24 22:55 | 51.04066 | -0.39821 | 2995 ft | 179 kts | 271° |
| 2026-04-24 22:55 | 51.04177 | -0.41675 | 2953 ft | 158 kts | 291° |
| 2026-04-24 22:56 | 51.04840 | -0.42892 | 2974 ft | 143 kts | 330° |
| 2026-04-24 22:56 | 51.05729 | -0.43587 | 2993 ft | 143 kts | 339° |
| 2026-04-24 22:56 | 51.06656 | -0.44177 | 2993 ft | 143 kts | 340° |
| 2026-04-24 22:56 | 51.07611 | -0.44590 | 2978 ft | 142 kts | 4° |
| 2026-04-24 22:57 | 51.08574 | -0.44380 | 2998 ft | 140 kts | 14° |
| 2026-04-24 22:57 | 51.09522 | -0.44046 | 2994 ft | 140 kts | 15° |
| 2026-04-24 22:57 | 51.10455 | -0.43626 | 2990 ft | 139 kts | 23° |
| 2026-04-24 22:57 | 51.11199 | -0.42729 | 2976 ft | 135 kts | 54° |
| 2026-04-24 22:58 | 51.11660 | -0.41442 | 2883 ft | 133 kts | 71° |
| 2026-04-24 22:58 | 51.11925 | -0.40037 | 2729 ft | 131 kts | 78° |
| 2026-04-24 22:58 | 51.12127 | -0.38625 | 2533 ft | 131 kts | 79° |
| 2026-04-24 22:58 | 51.12317 | -0.37232 | 2349 ft | 130 kts | 79° |
| 2026-04-24 22:59 | 51.12514 | -0.35809 | 2169 ft | 129 kts | 79° |
| 2026-04-24 22:59 | 51.12704 | -0.34433 | 1995 ft | 128 kts | 79° |
| 2026-04-24 22:59 | 51.13086 | -0.31649 | 1646 ft | 128 kts | 79° |
| 2026-04-24 23:00 | 51.13273 | -0.30285 | 1465 ft | 128 kts | 79° |
| 2026-04-24 23:00 | 51.13465 | -0.28887 | 1293 ft | 127 kts | 79° |
| 2026-04-24 23:00 | 51.13652 | -0.27525 | 1112 ft | 128 kts | 78° |
| 2026-04-24 23:00 | 51.13841 | -0.26146 | 932 ft | 128 kts | 78° |
| 2026-04-24 23:01 | 51.14033 | -0.24744 | 771 ft | 124 kts | 77° |
| 2026-04-24 23:01 | 51.14208 | -0.23469 | 595 ft | 117 kts | 77° |
| 2026-04-24 23:01 | 51.14372 | -0.22202 | 486 ft | 118 kts | 78° |
| 2026-04-24 23:01 | 51.14543 | -0.20923 | 285 ft | 118 kts | 77° |
| 2026-04-24 23:02 | 51.14715 | -0.19720 | 217 ft | 89 kts | 77° |
| 2026-04-24 23:02 | 51.14836 | -0.18834 | 211 ft | 75 kts | 73° |
| 2026-04-24 23:02 | 51.15068 | -0.18258 | 212 ft | 44 kts | 51° |
| 2026-04-24 23:02 | 51.15173 | -0.18179 | 211 ft | 5 kts | 357° |
| 2026-04-24 23:03 | 51.15207 | -0.18173 | 213 ft | 3 kts | 21° |
| 2026-04-24 23:03 | 51.15230 | -0.18159 | 218 ft | 5 kts | 21° |